Time;durP1;ratioP1;P1;durP2;ratioP2;P2;SDS_P1;SDS_P2;PMS_P1;PMS_P2;Temp;Humidity;BMP_temperature;BMP_pressure;BME280_temperature;BME280_humidity;BME280_pressure;Samples;Min_cycle;Max_cycle;Signal;HPM_P1;HPM_P2
2023/04/29 00:00:36;;;;;;;3.97;2.67;;;;;;;17.56;66.50;96438.56;10346455;28;20091;-30
2023/04/29 00:05:36;;;;;;;3.97;1.90;;;;;;;17.59;62.41;96438.56;10346029;28;20049;-30
2023/04/29 00:10:36;;;;;;;3.03;1.97;;;;;;;17.48;59.95;96430.16;10367121;28;20280;-30
2023/04/29 00:15:39;;;;;;;5.53;2.00;;;;;;;17.43;57.09;96434.34;10348980;28;20580;-30
2023/04/29 00:20:39;;;;;;;2.90;1.83;;;;;;;17.40;56.64;96427.59;10357240;28;20303;-30
2023/04/29 00:25:39;;;;;;;4.10;2.43;;;;;;;17.39;56.29;96432.66;10344383;28;20504;-30
2023/04/29 00:30:40;;;;;;;3.75;1.98;;;;;;;17.39;56.28;96430.13;10329434;28;20504;-30
2023/04/29 00:35:40;;;;;;;3.03;2.25;;;;;;;17.40;56.05;96434.38;10331421;28;20034;-30
2023/04/29 00:40:42;;;;;;;1.93;1.63;;;;;;;17.38;56.01;96429.28;10344382;28;20508;-30
2023/04/29 00:45:43;;;;;;;2.67;2.03;;;;;;;17.40;55.93;96429.31;10359119;28;20030;-30
2023/04/29 00:50:43;;;;;;;3.45;1.92;;;;;;;17.36;55.63;96423.41;10315147;28;1058261;-30
2023/04/29 00:55:46;;;;;;;2.00;1.77;;;;;;;17.40;55.90;96426.78;10337591;28;20034;-30
2023/04/29 01:00:47;;;;;;;6.85;2.75;;;;;;;17.54;65.29;96414.94;10346239;28;20452;-30
2023/04/29 01:05:56;;;;;;;2.95;2.05;;;;;;;17.58;66.26;96416.63;10347850;28;20031;-33
2023/04/29 01:11:07;;;;;;;3.85;2.35;;;;;;;17.55;60.42;96417.47;10334083;28;20026;-30
2023/04/29 01:16:16;;;;;;;1.65;1.50;;;;;;;17.47;57.16;96418.31;10337661;28;20496;-31
2023/04/29 01:21:17;;;;;;;2.33;1.75;;;;;;;17.42;56.75;96414.94;10354965;28;20026;-30
2023/04/29 01:26:17;;;;;;;2.42;1.73;;;;;;;17.41;56.63;96418.34;10330571;28;20448;-31
2023/04/29 01:31:57;;;;;;;1.73;1.55;;;;;;;17.41;56.37;96419.16;10342245;28;20524;-30
2023/04/29 01:37:32;;;;;;;3.03;2.10;;;;;;;17.42;56.51;96404.84;10340811;28;20033;-30
2023/04/29 01:42:45;;;;;;;2.88;1.77;;;;;;;17.49;55.89;96404.00;10332140;28;20034;-30
2023/04/29 01:47:52;;;;;;;1.83;1.60;;;;;;;17.51;55.59;96407.34;10320760;28;20030;-31
2023/04/29 01:52:52;;;;;;;2.00;1.50;;;;;;;17.50;55.83;96408.19;10330992;28;20030;-31
2023/04/29 01:57:53;;;;;;;2.72;1.60;;;;;;;17.48;55.20;96403.13;10314922;28;20031;-30
2023/04/29 02:03:13;;;;;;;4.65;1.88;;;;;;;17.60;64.11;96404.81;10310455;28;20108;-31
2023/04/29 02:08:17;;;;;;;3.65;1.88;;;;;;;17.61;65.16;96397.22;10344917;28;20051;-30
2023/04/29 02:13:20;;;;;;;2.75;1.83;;;;;;;17.60;58.80;96392.16;10347966;28;20034;-30
2023/04/29 02:18:20;;;;;;;2.83;1.88;;;;;;;17.56;56.43;96403.13;10348341;28;20034;-30
2023/04/29 02:23:22;;;;;;;2.55;1.50;;;;;;;17.53;56.49;96405.66;10344115;28;20422;-30
2023/04/29 02:28:22;;;;;;;1.73;1.30;;;;;;;17.51;56.12;96409.88;10313067;28;20249;-31
2023/04/29 02:33:23;;;;;;;2.38;1.50;;;;;;;17.50;56.18;96409.03;10349504;28;20034;-30
2023/04/29 02:38:23;;;;;;;2.55;1.58;;;;;;;17.50;56.02;96409.03;10343679;28;20039;-30
2023/04/29 02:43:24;;;;;;;2.15;1.52;;;;;;;17.49;55.95;96409.88;10327959;28;20037;-30
2023/04/29 02:48:24;;;;;;;2.30;1.88;;;;;;;17.47;55.85;96420.84;10353795;28;20049;-31
2023/04/29 02:53:25;;;;;;;2.37;1.80;;;;;;;17.48;55.83;96408.19;10344766;28;20048;-31
2023/04/29 02:58:25;;;;;;;2.33;1.50;;;;;;;17.47;55.70;96410.72;10308900;28;20046;-30
2023/04/29 03:03:25;;;;;;;1.83;1.60;;;;;;;17.47;55.78;96408.19;10334796;28;20949;-30
2023/04/29 03:08:27;;;;;;;2.87;1.87;;;;;;;17.57;64.50;96409.88;10350617;28;20038;-30
2023/04/29 03:13:27;;;;;;;3.35;1.60;;;;;;;17.60;65.19;96407.34;10350507;28;20034;-30
2023/04/29 03:18:28;;;;;;;2.60;1.60;;;;;;;17.58;61.34;96396.38;10339123;28;20497;-30
2023/04/29 03:23:28;;;;;;;2.00;1.50;;;;;;;17.53;56.95;96398.06;10327555;28;20062;-30
2023/04/29 03:28:29;;;;;;;2.00;1.48;;;;;;;17.50;56.23;96398.91;10325704;28;20053;-30
2023/04/29 03:33:29;;;;;;;2.10;1.40;;;;;;;17.49;56.29;96396.38;10332181;28;20056;-31
2023/04/29 03:38:30;;;;;;;1.92;1.23;;;;;;;17.49;56.17;96398.91;10333980;28;20297;-30
2023/04/29 03:43:30;;;;;;;2.57;1.50;;;;;;;17.47;56.21;96393.00;10343219;28;20037;-30
2023/04/29 03:48:31;;;;;;;2.35;1.63;;;;;;;17.46;55.92;96397.22;10335201;28;20779;-30
2023/04/29 03:53:32;;;;;;;2.50;1.35;;;;;;;17.46;55.61;96403.97;10327602;28;20055;-30
2023/04/29 03:58:33;;;;;;;1.85;1.45;;;;;;;17.44;55.93;96398.06;10351729;28;20037;-30
2023/04/29 04:03:34;;;;;;;2.55;1.42;;;;;;;17.45;55.88;96399.75;10350035;28;20029;-30
2023/04/29 04:08:35;;;;;;;3.35;1.30;;;;;;;17.45;55.52;96392.16;10332462;28;20037;-30
2023/04/29 04:13:42;;;;;;;2.63;1.35;;;;;;;17.57;64.29;96399.75;10330559;28;20044;-30
2023/04/29 04:18:43;;;;;;;4.03;1.73;;;;;;;17.59;65.03;96400.59;10333329;28;20030;-30
2023/04/29 04:23:43;;;;;;;2.80;1.83;;;;;;;17.59;61.75;96408.19;10330879;28;20150;-31
2023/04/29 04:28:46;;;;;;;4.00;1.65;;;;;;;17.53;56.93;96415.78;10346957;28;20110;-31
2023/04/29 04:33:54;;;;;;;1.83;1.10;;;;;;;17.49;56.59;96414.09;10312992;28;20030;-30
2023/04/29 04:38:56;;;;;;;1.55;1.20;;;;;;;17.46;56.51;96406.50;10337052;28;20027;-30
2023/04/29 04:43:56;;;;;;;1.55;1.38;;;;;;;17.48;56.36;96435.19;10315413;28;20031;-31
2023/04/29 04:49:17;;;;;;;2.13;1.50;;;;;;;17.48;56.62;96430.16;10331475;28;20034;-30
2023/04/29 04:54:25;;;;;;;2.72;1.55;;;;;;;17.47;55.85;96438.56;10348133;28;20038;-30
2023/04/29 04:59:35;;;;;;;1.98;1.35;;;;;;;17.46;56.20;96441.94;10322845;28;20038;-30
2023/04/29 05:04:36;;;;;;;1.73;1.30;;;;;;;17.45;56.03;96450.38;10330868;28;20034;-30
2023/04/29 05:09:36;;;;;;;1.65;1.10;;;;;;;17.45;55.72;96457.97;10341871;28;20018;-30
2023/04/29 05:14:37;;;;;;;1.95;1.33;;;;;;;17.47;55.60;96458.78;10340529;28;20099;-31
2023/04/29 05:19:37;;;;;;;2.43;1.60;;;;;;;17.56;63.81;96464.72;10353300;28;20416;-30
2023/04/29 05:24:38;;;;;;;1.90;1.58;;;;;;;17.59;64.43;96458.81;10338722;28;20285;-31
2023/04/29 05:29:39;;;;;;;1.95;1.35;;;;;;;17.60;60.25;96470.63;10346630;28;20035;-30
2023/04/29 05:34:40;;;;;;;1.98;1.45;;;;;;;17.58;56.76;96472.31;10348995;28;20038;-30
2023/04/29 05:39:40;;;;;;;1.92;1.23;;;;;;;17.56;56.15;96474.00;10360267;28;20065;-30
2023/04/29 05:44:46;;;;;;;1.73;1.07;;;;;;;17.55;56.26;96474.81;10344632;28;20120;-30
2023/04/29 05:49:47;;;;;;;1.90;1.35;;;;;;;17.53;55.93;96474.00;10327924;28;20030;-30
2023/04/29 05:54:48;;;;;;;1.80;1.00;;;;;;;17.51;56.23;96488.34;10356345;28;20069;-31
2023/04/29 05:59:48;;;;;;;1.25;0.98;;;;;;;17.51;55.92;96501.00;10343477;28;20133;-31
2023/04/29 06:04:49;;;;;;;1.20;1.10;;;;;;;17.49;56.14;96507.75;10346604;28;20029;-31
2023/04/29 06:09:59;;;;;;;2.30;1.50;;;;;;;17.48;56.31;96506.91;10334387;28;20062;-30
2023/04/29 06:15:01;;;;;;;1.25;0.90;;;;;;;17.47;56.08;96519.53;10328310;28;20046;-30
2023/04/29 06:20:01;;;;;;;1.70;1.45;;;;;;;17.50;56.23;96520.38;10332458;28;20452;-30
2023/04/29 06:25:01;;;;;;;2.07;1.57;;;;;;;17.57;61.23;96528.84;10333458;28;20030;-30
2023/04/29 06:30:18;;;;;;;3.57;1.73;;;;;;;17.65;64.69;96529.69;10325131;28;20092;-31
2023/04/29 06:35:18;;;;;;;3.95;1.08;;;;;;;17.67;60.79;96526.28;10323592;28;20463;-31
2023/04/29 06:40:41;;;;;;;1.83;1.10;;;;;;;17.61;57.52;96538.97;10307911;28;20117;-31
2023/04/29 06:46:00;;;;;;;1.83;1.38;;;;;;;17.58;56.09;96536.41;10324760;28;20038;-31
2023/04/29 06:51:12;;;;;;;3.20;1.10;;;;;;;17.56;55.67;96534.75;10333204;28;20553;-30
2023/04/29 06:56:13;;;;;;;4.07;1.10;;;;;;;17.54;55.46;96533.88;10327051;28;20035;-30
2023/04/29 07:01:13;;;;;;;1.83;1.00;;;;;;;17.53;56.38;96539.78;10338450;28;20041;-30
2023/04/29 07:06:14;;;;;;;1.35;0.95;;;;;;;17.52;55.50;96536.44;10333062;28;20049;-30
2023/04/29 07:11:14;;;;;;;2.00;1.17;;;;;;;17.53;55.93;96534.72;10337153;28;20039;-30
2023/04/29 07:16:16;;;;;;;1.90;1.10;;;;;;;17.52;55.98;96545.72;10351021;28;20034;-31
2023/04/29 07:21:17;;;;;;;1.35;0.88;;;;;;;17.51;55.82;96556.69;10337685;28;20087;-31
2023/04/29 07:26:18;;;;;;;2.40;1.30;;;;;;;17.50;55.58;96552.47;10327520;28;20027;-30
2023/04/29 07:31:19;;;;;;;2.50;1.23;;;;;;;17.53;59.58;96560.03;10329104;28;20810;-30
2023/04/29 07:36:20;;;;;;;2.72;1.45;;;;;;;17.66;64.03;96566.81;10327414;28;20050;-30
2023/04/29 07:41:21;;;;;;;3.50;1.40;;;;;;;17.70;63.74;96569.34;10328312;28;20057;-30
2023/04/29 07:46:22;;;;;;;1.98;1.10;;;;;;;17.63;59.84;96566.81;10326188;28;20030;-29
2023/04/29 07:51:22;;;;;;;2.17;1.50;;;;;;;17.59;56.66;96572.72;10351738;28;20034;-30
2023/04/29 07:56:23;;;;;;;1.57;1.00;;;;;;;17.56;56.37;96571.03;10342726;28;20027;-30
2023/04/29 08:01:23;;;;;;;1.35;0.93;;;;;;;17.55;56.23;96573.53;10330055;28;20037;-30
2023/04/29 08:06:24;;;;;;;3.17;1.20;;;;;;;17.56;58.35;96575.25;10347952;28;20101;-30
2023/04/29 08:11:25;;;;;;;3.17;1.40;;;;;;;17.54;59.74;96581.97;10340548;28;20022;-31
2023/04/29 08:16:25;;;;;;;2.60;1.02;;;;;;;17.53;57.33;96578.63;10334554;28;20416;-31
2023/04/29 08:21:26;;;;;;;5.97;2.22;;;;;;;17.52;58.72;96578.63;10348061;28;20053;-30
2023/04/29 08:26:26;;;;;;;5.68;1.10;;;;;;;17.63;58.48;96572.72;10331290;28;20113;-30
2023/04/29 08:31:27;;;;;;;2.13;1.20;;;;;;;17.57;56.85;96569.34;10346375;28;20042;-30
2023/04/29 08:36:28;;;;;;;1.33;0.85;;;;;;;17.54;56.35;96571.84;10333795;28;20096;-30
2023/04/29 08:41:32;;;;;;;2.58;0.90;;;;;;;17.62;59.81;96560.06;10322621;28;20439;-30
2023/04/29 08:46:32;;;;;;;5.22;2.10;;;;;;;17.72;63.00;96564.28;10344837;28;20489;-30
2023/04/29 08:51:33;;;;;;;4.18;1.50;;;;;;;17.71;60.50;96562.59;10331793;28;20029;-30
2023/04/29 08:56:36;;;;;;;4.45;1.10;;;;;;;17.61;57.15;96556.69;10338015;28;20401;-30
2023/04/29 09:01:39;;;;;;;6.82;1.80;;;;;;;17.50;59.70;96555.00;10329703;28;20041;-30
2023/04/29 09:06:40;;;;;;;4.80;1.40;;;;;;;17.51;58.39;96562.56;10324408;28;20489;-30
2023/04/29 09:11:40;;;;;;;9.57;1.52;;;;;;;17.55;60.53;96568.47;10341706;28;20053;-30
2023/04/29 09:16:41;;;;;;;4.83;1.60;;;;;;;17.53;57.13;96565.09;10329069;28;20054;-30
2023/04/29 09:21:57;;;;;;;4.83;1.40;;;;;;;17.50;55.80;96575.25;10345907;28;20057;-31
2023/04/29 09:26:59;;;;;;;3.03;1.25;;;;;;;17.52;55.24;96583.66;10337852;28;20114;-30
2023/04/29 09:31:59;;;;;;;4.22;1.40;;;;;;;17.42;56.05;96587.03;10327794;28;20042;-30
2023/04/29 09:36:59;;;;;;;2.83;1.20;;;;;;;17.45;54.75;96581.97;10349022;28;20500;-31
2023/04/29 09:42:01;;;;;;;2.55;1.10;;;;;;;17.46;54.46;96583.66;10357344;28;20346;-30
2023/04/29 09:47:06;;;;;;;3.05;1.10;;;;;;;17.46;55.27;96593.78;10343287;28;20317;-30
2023/04/29 09:52:09;;;;;;;8.95;2.47;;;;;;;17.65;63.59;96600.56;10360083;28;20122;-30
2023/04/29 09:57:11;;;;;;;3.95;2.08;;;;;;;17.70;63.83;96593.81;10339196;28;20520;-30
2023/04/29 10:02:14;;;;;;;5.15;1.40;;;;;;;17.61;60.42;96589.59;10328614;28;20061;-30
2023/04/29 10:07:16;;;;;;;2.60;1.00;;;;;;;17.56;56.26;96591.28;10350413;28;20057;-30
2023/04/29 10:12:19;;;;;;;3.83;1.35;;;;;;;17.52;56.10;96601.38;10337615;28;20510;-30
2023/04/29 10:17:27;;;;;;;6.95;1.70;;;;;;;17.49;56.05;96594.63;10346852;28;20037;-30
2023/04/29 10:22:48;;;;;;;1.73;1.10;;;;;;;17.48;55.51;96592.13;10340442;28;20512;-30
2023/04/29 10:27:52;;;;;;;4.85;1.63;;;;;;;17.47;55.63;96592.94;10353963;28;20029;-30
2023/04/29 10:32:53;;;;;;;2.72;1.30;;;;;;;17.45;55.68;96587.03;10339413;28;20083;-31
2023/04/29 10:37:58;;;;;;;0.98;0.82;;;;;;;17.45;55.71;96584.50;10328854;28;20034;-30
2023/04/29 10:42:59;;;;;;;3.47;0.95;;;;;;;17.43;55.61;96578.59;10345680;28;20042;-29
2023/04/29 10:48:05;;;;;;;1.30;1.00;;;;;;;17.44;55.64;96581.16;10336291;28;20031;-30
2023/04/29 10:53:05;;;;;;;2.97;1.10;;;;;;;17.43;55.42;96591.25;10328810;28;20038;-31
2023/04/29 10:58:34;;;;;;;2.10;1.20;;;;;;;17.54;59.51;96581.97;10322758;28;20038;-30
2023/04/29 11:03:44;;;;;;;3.22;1.50;;;;;;;17.65;63.47;96580.31;10332082;28;20046;-30
2023/04/29 11:08:44;;;;;;;1.58;1.00;;;;;;;17.68;60.61;96576.09;10352501;28;20036;-30
2023/04/29 11:13:46;;;;;;;1.92;1.13;;;;;;;17.57;58.94;96562.59;10330440;28;20052;-30
2023/04/29 11:19:09;;;;;;;2.80;1.10;;;;;;;17.52;56.22;96565.97;10338211;28;20034;-30
2023/04/29 11:24:11;;;;;;;1.63;1.10;;;;;;;17.50;56.32;96562.59;10328792;28;20034;-30
2023/04/29 11:29:11;;;;;;;2.35;0.77;;;;;;;17.47;56.10;96570.16;10339094;28;20519;-30
2023/04/29 11:34:12;;;;;;;1.73;1.00;;;;;;;17.45;55.93;96565.09;10322826;28;20034;-30
2023/04/29 11:39:12;;;;;;;2.47;1.00;;;;;;;17.46;56.36;96560.88;10351996;28;20290;-30
2023/04/29 11:44:13;;;;;;;4.63;1.43;;;;;;;17.44;58.16;96560.91;10335299;28;20030;-31
2023/04/29 11:49:13;;;;;;;3.30;1.33;;;;;;;17.50;57.09;96560.06;10324786;28;20027;-30
2023/04/29 11:54:13;;;;;;;6.73;1.13;;;;;;;17.52;59.33;96556.69;10366617;28;20037;-29
2023/04/29 11:59:14;;;;;;;6.27;1.70;;;;;;;17.74;60.39;96560.06;10346961;28;20064;-30
2023/04/29 12:04:15;;;;;;;6.17;2.70;;;;;;;17.81;60.83;96556.69;10336392;28;20069;-30
2023/04/29 12:09:15;;;;;;;9.57;1.27;;;;;;;17.77;60.52;96555.00;10354548;28;20026;-30
2023/04/29 12:14:16;;;;;;;5.20;1.23;;;;;;;17.64;57.72;96559.22;10335705;28;20104;-30
2023/04/29 12:19:16;;;;;;;4.80;1.00;;;;;;;17.55;57.06;96550.75;10339621;28;20297;-30
2023/04/29 12:24:20;;;;;;;7.47;2.28;;;;;;;17.57;57.34;96557.53;10340855;28;20125;-30
2023/04/29 12:29:23;;;;;;;7.70;1.85;;;;;;;17.66;60.89;96561.75;10330176;28;20022;-29
2023/04/29 12:34:28;;;;;;;8.30;1.85;;;;;;;17.80;58.34;96562.59;10343417;28;20033;-29
2023/04/29 12:39:30;;;;;;;6.82;1.77;;;;;;;17.75;59.20;96552.47;10341258;28;20065;-30
2023/04/29 12:44:36;;;;;;;11.43;1.55;;;;;;;17.70;58.88;96563.44;10336874;28;20493;-30
2023/04/29 12:49:37;;;;;;;11.63;1.90;;;;;;;17.61;57.72;96560.91;10335101;28;20485;-30
2023/04/29 12:54:40;;;;;;;10.30;1.92;;;;;;;17.55;56.88;96569.34;10357245;28;20041;-30
2023/04/29 12:59:41;;;;;;;5.00;2.22;;;;;;;17.67;59.90;96564.28;10349371;28;20447;-31
2023/04/29 13:04:41;;;;;;;11.83;2.17;;;;;;;17.80;58.46;96560.91;10353309;28;20045;-30
2023/04/29 13:09:41;;;;;;;4.97;1.37;;;;;;;17.71;58.49;96570.19;10344431;28;20712;-30
2023/04/29 13:14:42;;;;;;;3.60;1.30;;;;;;;17.58;56.52;96561.72;10354281;28;20042;-31
2023/04/29 13:19:43;;;;;;;1.73;1.10;;;;;;;17.50;57.47;96567.66;10325274;28;20289;-30
2023/04/29 13:24:44;;;;;;;9.02;2.00;;;;;;;17.50;56.50;96571.00;10346400;28;20429;-29
2023/04/29 13:29:45;;;;;;;5.30;2.35;;;;;;;17.52;57.15;96566.81;10333518;28;20036;-30
2023/04/29 13:34:45;;;;;;;6.10;1.40;;;;;;;17.74;59.15;96570.22;10315709;28;20084;-30
2023/04/29 13:39:45;;;;;;;6.07;1.33;;;;;;;17.77;58.36;96570.19;10342289;28;20034;-31
2023/04/29 13:44:47;;;;;;;5.13;1.50;;;;;;;17.66;58.57;96562.59;10354172;28;20034;-30
2023/04/29 13:49:47;;;;;;;8.90;2.08;;;;;;;17.63;59.11;96566.81;10331571;28;20249;-30
2023/04/29 13:54:47;;;;;;;12.95;1.45;;;;;;;17.56;58.15;96560.06;10339335;28;20120;-30
2023/04/29 13:59:51;;;;;;;5.23;1.00;;;;;;;17.54;56.59;96562.59;10315443;28;20046;-29
2023/04/29 14:04:52;;;;;;;7.38;2.00;;;;;;;17.60;59.52;96559.22;10329643;28;20069;-30
2023/04/29 14:09:52;;;;;;;4.68;1.75;;;;;;;17.72;62.45;96561.75;10354328;28;20084;-29
2023/04/29 14:14:53;;;;;;;5.17;1.30;;;;;;;17.71;59.71;96562.59;10360640;28;20048;-32
2023/04/29 14:19:53;;;;;;;8.38;1.60;;;;;;;17.64;58.54;96564.28;10347399;28;20035;-30
2023/04/29 14:24:54;;;;;;;4.97;1.17;;;;;;;17.57;56.77;96567.66;10347693;28;20560;-31
2023/04/29 14:29:54;;;;;;;6.67;1.93;;;;;;;17.53;56.27;96565.09;10361681;28;20030;-29
2023/04/29 14:34:54;;;;;;;7.83;1.63;;;;;;;17.54;56.48;96571.84;10329818;28;20409;-30
2023/04/29 14:39:55;;;;;;;8.33;1.80;;;;;;;17.54;56.59;96579.44;10344386;28;20038;-30
2023/04/29 14:44:55;;;;;;;4.37;1.27;;;;;;;17.69;62.71;96577.81;10344840;28;20038;-31
2023/04/29 14:49:56;;;;;;;13.10;1.52;;;;;;;17.74;59.85;96588.75;10320883;28;20763;-30
2023/04/29 14:54:56;;;;;;;9.20;2.37;;;;;;;17.67;59.03;96591.28;10341510;28;20043;-30
2023/04/29 14:59:56;;;;;;;12.83;2.17;;;;;;;17.53;59.34;96595.47;10352598;28;20030;-30
2023/04/29 15:04:57;;;;;;;9.23;1.47;;;;;;;17.71;59.83;96595.50;10320540;28;20037;-30
2023/04/29 15:09:57;;;;;;;11.63;2.10;;;;;;;17.60;58.34;96597.19;10345590;28;20038;-31
2023/04/29 15:14:58;;;;;;;8.20;2.23;;;;;;;17.57;57.35;96602.25;10346813;28;20038;-30
2023/04/29 15:19:58;;;;;;;8.73;2.30;;;;;;;17.62;60.93;96601.41;10314445;28;20030;-33
2023/04/29 15:24:59;;;;;;;6.43;1.73;;;;;;;17.77;61.75;96595.50;10321440;28;20034;-30
2023/04/29 15:30:00;;;;;;;10.90;2.25;;;;;;;17.74;59.37;96600.59;10313171;28;20226;-31
2023/04/29 15:35:02;;;;;;;8.43;2.88;;;;;;;17.62;58.09;96598.03;10316186;28;20473;-31
2023/04/29 15:40:03;;;;;;;8.90;1.40;;;;;;;17.57;60.64;96597.19;10313200;28;20116;-31
2023/04/29 15:45:07;;;;;;;5.07;1.48;;;;;;;17.53;57.16;96605.59;10335910;28;20478;-30
2023/04/29 15:50:09;;;;;;;8.25;1.70;;;;;;;17.56;56.70;96613.22;10330219;28;20497;-30
2023/04/29 15:55:10;;;;;;;5.90;1.67;;;;;;;17.57;56.29;96609.84;10343044;28;20041;-32
2023/04/29 16:00:11;;;;;;;4.90;1.50;;;;;;;17.70;61.86;96609.00;10338681;28;20105;-30
2023/04/29 16:05:12;;;;;;;6.75;1.77;;;;;;;17.79;61.15;96609.88;10307467;28;20035;-30
2023/04/29 16:10:12;;;;;;;3.08;1.15;;;;;;;17.72;58.01;96618.31;10317589;28;20034;-32
2023/04/29 16:15:13;;;;;;;3.20;1.27;;;;;;;17.65;56.14;96625.91;10335653;28;20463;-30
2023/04/29 16:20:13;;;;;;;4.97;1.90;;;;;;;17.61;56.08;96634.31;10332009;28;20412;-30
2023/04/29 16:25:13;;;;;;;6.18;1.30;;;;;;;17.56;55.88;96636.00;10330425;28;20034;-31
2023/04/29 16:30:14;;;;;;;2.83;1.10;;;;;;;17.56;55.55;96641.06;10333675;28;20076;-31
2023/04/29 16:35:15;;;;;;;2.60;1.02;;;;;;;17.54;55.89;96637.66;10320217;28;20850;-30
2023/04/29 16:40:15;;;;;;;7.28;1.40;;;;;;;17.67;58.14;96644.47;10330255;28;20073;-31
2023/04/29 16:45:16;;;;;;;3.20;1.60;;;;;;;17.75;60.44;96643.63;10321931;28;20121;-30
2023/04/29 16:50:17;;;;;;;1.70;1.50;;;;;;;17.73;57.73;96649.53;10332312;28;20038;-31
2023/04/29 16:55:17;;;;;;;2.97;1.08;;;;;;;17.64;56.15;96652.03;10348263;28;20034;-31
2023/04/29 17:00:18;;;;;;;5.27;1.17;;;;;;;17.63;56.48;96652.88;10341706;28;20030;-30
2023/04/29 17:05:18;;;;;;;9.80;1.47;;;;;;;17.58;57.18;96654.56;10344525;28;20461;-30
2023/04/29 17:10:19;;;;;;;2.28;1.17;;;;;;;17.61;55.93;96662.16;10341512;28;20038;-30
2023/04/29 17:15:19;;;;;;;2.35;1.15;;;;;;;17.60;55.70;96663.00;10345874;28;20042;-30
2023/04/29 17:20:20;;;;;;;5.73;2.10;;;;;;;17.69;58.75;96670.63;10333914;28;20039;-31
2023/04/29 17:25:21;;;;;;;5.47;2.50;;;;;;;17.78;63.18;96668.09;10344629;28;20487;-30
2023/04/29 17:30:21;;;;;;;2.38;1.67;;;;;;;17.76;59.15;96669.78;10350473;28;20611;-30
2023/04/29 17:35:22;;;;;;;5.20;1.10;;;;;;;17.65;56.14;96676.53;10346345;28;20472;-30
2023/04/29 17:40:22;;;;;;;3.33;1.70;;;;;;;17.62;55.74;96671.44;10340710;28;20396;-30
2023/04/29 17:45:23;;;;;;;2.97;1.00;;;;;;;17.51;55.78;96663.81;10341219;28;20053;-30
2023/04/29 17:50:24;;;;;;;4.10;1.23;;;;;;;17.57;55.59;96678.19;10340458;28;20042;-30
2023/04/29 17:55:24;;;;;;;2.90;1.27;;;;;;;17.58;56.17;96684.94;10342987;28;20034;-30
2023/04/29 18:00:25;;;;;;;3.63;1.47;;;;;;;17.62;55.76;96684.97;10333757;28;20095;-27
2023/04/29 18:05:25;;;;;;;7.47;2.90;;;;;;;17.77;64.98;96696.81;10326403;28;20304;-30
2023/04/29 18:10:26;;;;;;;8.85;3.17;;;;;;;17.81;64.46;96689.22;10323362;28;20397;-31
2023/04/29 18:15:26;;;;;;;4.13;1.73;;;;;;;17.77;56.47;96689.22;10328270;28;20069;-30
2023/04/29 18:20:26;;;;;;;4.00;1.30;;;;;;;17.73;55.77;96695.94;10332451;28;20049;-31
2023/04/29 18:25:27;;;;;;;2.47;1.17;;;;;;;17.73;55.96;96697.66;10337589;28;20052;-31
2023/04/29 18:30:27;;;;;;;4.80;1.60;;;;;;;17.76;55.97;96700.19;10340287;28;20026;-30
2023/04/29 18:35:27;;;;;;;5.27;2.43;;;;;;;17.72;56.98;96693.41;10350749;28;20037;-30
2023/04/29 18:40:28;;;;;;;5.23;1.50;;;;;;;17.74;55.80;96701.88;10349710;28;20041;-30
2023/04/29 18:45:28;;;;;;;5.28;2.50;;;;;;;17.80;60.63;96697.66;10336431;28;20292;-30
2023/04/29 18:50:29;;;;;;;6.10;2.83;;;;;;;17.89;62.89;96701.88;10334275;28;20045;-31
2023/04/29 18:55:29;;;;;;;3.60;2.43;;;;;;;17.85;57.67;96710.31;10340381;28;20034;-30
2023/04/29 19:00:30;;;;;;;3.10;1.00;;;;;;;17.79;56.20;96712.84;10326105;28;20789;-31
2023/04/29 19:05:30;;;;;;;2.17;1.40;;;;;;;17.73;56.01;96706.06;10340311;28;20044;-30
2023/04/29 19:10:31;;;;;;;2.92;1.90;;;;;;;17.72;55.94;96709.44;10323998;28;20432;-30
2023/04/29 19:15:32;;;;;;;4.20;1.73;;;;;;;17.69;56.01;96728.84;10360442;28;20081;-30
2023/04/29 19:20:33;;;;;;;4.03;1.52;;;;;;;17.67;55.76;96731.38;10333977;28;20043;-31
2023/04/29 19:25:33;;;;;;;2.53;1.20;;;;;;;17.64;55.93;96731.38;10329324;28;20036;-31
2023/04/29 19:30:33;;;;;;;8.67;2.53;;;;;;;17.72;59.88;96733.91;10344064;28;20056;-31
2023/04/29 19:35:34;;;;;;;11.43;3.22;;;;;;;17.84;64.39;96733.97;10330801;28;20081;-30
2023/04/29 19:40:34;;;;;;;6.00;3.23;;;;;;;17.84;61.83;96744.91;10313227;28;21213;-31
2023/04/29 19:45:35;;;;;;;4.93;2.20;;;;;;;17.74;57.11;96745.75;10322387;28;20288;-30
2023/04/29 19:50:35;;;;;;;3.33;1.65;;;;;;;17.68;56.74;96747.41;10320648;28;20042;-30
2023/04/29 19:55:37;;;;;;;3.97;1.40;;;;;;;17.65;56.34;96753.31;10347416;28;20045;-30
2023/04/29 20:00:38;;;;;;;2.72;1.40;;;;;;;17.63;55.91;96749.94;10338431;28;20351;-30
2023/04/29 20:05:40;;;;;;;4.65;1.77;;;;;;;17.58;56.25;96749.06;10351631;28;20030;-30
2023/04/29 20:10:40;;;;;;;4.28;1.25;;;;;;;17.60;56.02;96746.53;10327104;28;20030;-32
2023/04/29 20:15:41;;;;;;;4.72;1.40;;;;;;;17.59;55.98;96752.44;10331137;28;20042;-30
2023/04/29 20:20:41;;;;;;;5.15;2.65;;;;;;;17.76;64.58;96760.94;10318387;28;20049;-31
2023/04/29 20:25:42;;;;;;;6.40;2.50;;;;;;;17.81;62.79;96760.13;10327566;28;20026;-30
2023/04/29 20:30:42;;;;;;;3.97;2.08;;;;;;;17.73;60.57;96755.88;10354702;28;20034;-30
2023/04/29 20:35:42;;;;;;;2.80;1.70;;;;;;;17.66;56.74;96755.00;10324481;28;20053;-30
2023/04/29 20:40:45;;;;;;;4.53;1.40;;;;;;;17.62;56.60;96757.50;10310155;28;20061;-31
2023/04/29 20:45:45;;;;;;;3.47;1.52;;;;;;;17.59;56.08;96753.28;10338640;28;20112;-30
2023/04/29 20:50:46;;;;;;;3.88;1.40;;;;;;;17.58;56.41;96750.75;10332197;28;20033;-30
2023/04/29 20:55:47;;;;;;;1.20;1.10;;;;;;;17.57;56.50;96756.66;10363241;28;20241;-31
2023/04/29 21:00:47;;;;;;;2.90;1.57;;;;;;;17.55;56.07;96760.84;10325340;28;20042;-30
2023/04/29 21:05:55;;;;;;;4.82;2.08;;;;;;;17.65;60.00;96757.53;10322942;28;20035;-31
2023/04/29 21:10:55;;;;;;;5.35;2.92;;;;;;;17.76;65.04;96766.84;10331511;28;20030;-31
2023/04/29 21:15:55;;;;;;;3.22;1.98;;;;;;;17.78;61.26;96769.38;10317383;28;20034;-32
2023/04/29 21:20:56;;;;;;;2.90;1.50;;;;;;;17.67;58.48;96773.56;10331563;28;20023;-31
2023/04/29 21:25:56;;;;;;;2.13;1.50;;;;;;;17.61;56.71;96771.00;10324945;28;20034;-30
2023/04/29 21:30:57;;;;;;;1.60;1.27;;;;;;;17.59;56.50;96770.16;10331321;28;20032;-31
2023/04/29 21:35:58;;;;;;;3.13;1.33;;;;;;;17.57;56.13;96774.38;10325650;28;20190;-30
2023/04/29 21:40:59;;;;;;;1.88;1.40;;;;;;;17.56;56.27;96775.22;10325530;28;20177;-30
2023/04/29 21:46:00;;;;;;;2.28;1.50;;;;;;;17.55;56.06;96773.50;10349281;28;20648;-31
2023/04/29 21:51:03;;;;;;;2.65;1.20;;;;;;;17.54;56.06;96775.22;10350516;28;20413;-30
2023/04/29 21:56:04;;;;;;;4.85;2.30;;;;;;;17.68;61.49;96778.63;10336269;28;20034;-30
2023/04/29 22:01:24;;;;;;;4.03;2.22;;;;;;;17.77;65.95;96768.56;10334680;28;20037;-31
2023/04/29 22:06:25;;;;;;;3.38;1.65;;;;;;;17.75;60.96;96766.88;10324021;28;20117;-30
2023/04/29 22:11:25;;;;;;;1.70;1.00;;;;;;;17.64;59.02;96771.00;10338702;28;20146;-30
2023/04/29 22:16:26;;;;;;;3.13;1.50;;;;;;;17.59;56.90;96767.63;10329049;28;20138;-30
2023/04/29 22:21:30;;;;;;;2.60;1.60;;;;;;;17.57;56.56;96764.25;10331661;28;20034;-30
2023/04/29 22:26:30;;;;;;;2.40;1.25;;;;;;;17.55;56.10;96770.97;10346751;28;20042;-30
2023/04/29 22:31:31;;;;;;;1.20;0.90;;;;;;;17.56;56.34;96762.56;10326885;28;20406;-30
2023/04/29 22:36:31;;;;;;;2.08;1.30;;;;;;;17.54;56.11;96764.22;10344842;28;20092;-31
2023/04/29 22:41:32;;;;;;;1.73;0.80;;;;;;;17.56;55.86;96775.22;10328669;28;20116;-30
2023/04/29 22:46:32;;;;;;;5.70;2.50;;;;;;;17.70;64.66;96771.03;10342928;28;20038;-29
2023/04/29 22:51:32;;;;;;;6.70;1.80;;;;;;;17.77;65.52;96768.56;10339047;28;20034;-30
2023/04/29 22:56:33;;;;;;;2.17;1.50;;;;;;;17.71;60.76;96772.72;10326527;28;20039;-30
2023/04/29 23:01:33;;;;;;;2.10;1.23;;;;;;;17.64;57.44;96773.53;10335453;28;20452;-30
2023/04/29 23:06:34;;;;;;;2.40;1.33;;;;;;;17.60;56.60;96774.38;10342528;28;20049;-30
2023/04/29 23:11:34;;;;;;;1.90;1.20;;;;;;;17.55;56.24;96771.84;10340106;28;20302;-30
2023/04/29 23:16:34;;;;;;;1.23;1.10;;;;;;;17.53;56.19;96776.06;10346783;28;20043;-30
2023/04/29 23:21:35;;;;;;;1.13;0.90;;;;;;;17.52;56.36;96779.44;10340961;28;20390;-30